Aeroporto :
LOGIN :

Iscrizione | Disclaimer

   EN    FR    IT 

 










Sommario :    VFR   VFR Marginale   IFR   IFR Intensivo   IFR Molto Intensivo
Visibilità : 
Base nubi : 
>= 8 km
>= 3000ft
5 / 8 km
1000 / 3000 ft
1500m / 5 km
500 / 1000 ft
800 / 1500m
200 / 500 ft
< 800m
< 200 ft
Simboli :   Temporali  Nebbia  Neve Forte  Precipitazioni Forti  Vento > 20 kt
SIGMETs :   Varie  Temporali  Ghiacco  Turbolenza  Onda orograficha  Ceneri Vulcaniche







- Altitudine del aeroporto : 755 ft
- Codice IATA : DRS


EDDC - Dresden Klotzsche

ULTIMO METAR :
  • 210520Z 35003KT 310V020 9999 FEW020 BKN040 BKN070 18/16 Q1021 NOSIG

METARs OBSOLETI :
  • 210450Z VRB02KT 9999 -RA SCT025 BKN040 18/15 Q1021 NOSIG
  • 210420Z 35003KT 9999 -RA SCT026 BKN048 19/15 Q1020 NOSIG
  • 210350Z VRB02KT 9999 SCT040 BKN070 19/15 Q1020 NOSIG
  • 210320Z 34004KT CAVOK 19/15 Q1020
  • 210250Z 33003KT CAVOK 19/15 Q1020

TAF TAF EDDC
Valido dal 21 a 06 ore il 22 a 06 ore UTC


210500Z 2106/2206 34004KT 9999 SCT020 BKN035
BECMG 2116/2119 04005KT
BECMG 2121/2124 14004KT
Nessun NOTAM noto per questo aeroporto.



MetMap, La meteo Aeronautica in un colpo d'occhio ! - Copyright ORBIFLY Dicembre 2007 - Disclaimer

ORBIFLY MET'MAP TEAM :

Programmazione e sviluppo : Alexandra Zaïnal
Concezione e sviluppo : Baudouin d'Aumeries
Co-Programmazione e sviluppo : Marc-Olivier Méhu
Supporto tecnico e logistico : Manuel Goepfert
Aiuto per la traduzione : Arnaldo La Scala

Contatto : metmap@orbifly.com




FONTI E CREDITI :

   NOAA